createdAt,value
2022-09-03T00:02:19.088Z,68.60
2022-09-03T00:04:57.935Z,67.60
2022-09-03T00:07:33.346Z,89.80
2022-09-03T00:10:06.127Z,69.00
2022-09-03T00:12:39.382Z,67.40
2022-09-03T00:15:10.434Z,67.80
2022-09-03T00:17:42.046Z,65.70
2022-09-03T00:20:14.287Z,66.80
2022-09-03T00:22:47.672Z,65.80
2022-09-03T00:25:20.657Z,67.50
2022-09-03T00:27:55.375Z,66.50
2022-09-03T00:30:24.455Z,67.20
2022-09-03T00:32:58.465Z,67.10
2022-09-03T00:35:31.458Z,68.00
2022-09-03T00:38:01.585Z,65.60
2022-09-03T00:40:56.408Z,67.70
2022-09-03T00:43:35.520Z,66.70
2022-09-03T00:46:11.098Z,67.10
2022-09-03T00:49:00.588Z,66.90
2022-09-03T00:51:39.205Z,64.20
2022-09-03T00:54:15.455Z,67.50
2022-09-03T00:56:49.837Z,67.80
2022-09-03T00:59:31.682Z,67.10
2022-09-03T01:02:11.308Z,67.20
2022-09-03T01:04:50.632Z,68.60
2022-09-03T01:07:32.710Z,88.30
2022-09-03T01:10:11.753Z,68.40
2022-09-03T01:12:49.124Z,69.60
2022-09-03T01:15:23.664Z,70.40
2022-09-03T01:18:08.487Z,70.30
2022-09-03T01:20:54.686Z,72.80
2022-09-03T01:23:44.832Z,66.30
2022-09-03T01:26:32.310Z,69.70
2022-09-03T01:29:13.074Z,70.30
2022-09-03T01:31:51.534Z,71.20
2022-09-03T01:34:31.843Z,70.10
2022-09-03T01:37:10.305Z,68.60
2022-09-03T01:39:49.230Z,67.80
2022-09-03T01:42:24.671Z,66.40
2022-09-03T01:45:23.093Z,66.90
2022-09-03T01:47:59.913Z,71.10
2022-09-03T01:50:39.592Z,72.40
2022-09-03T01:53:18.093Z,72.70
2022-09-03T01:56:02.974Z,72.70
2022-09-03T01:58:35.382Z,72.80
2022-09-03T02:01:14.060Z,74.60
2022-09-03T02:03:48.252Z,73.40
2022-09-03T02:06:16.896Z,73.30
2022-09-03T02:08:44.823Z,71.00
2022-09-03T02:11:13.024Z,71.40
2022-09-03T02:13:45.019Z,72.70
2022-09-03T02:16:16.669Z,71.90
2022-09-03T02:18:48.852Z,73.10
2022-09-03T02:21:21.467Z,73.10
2022-09-03T02:23:50.261Z,70.90
2022-09-03T02:26:21.321Z,69.50
2022-09-03T02:28:51.698Z,69.50
2022-09-03T02:31:21.545Z,70.70
2022-09-03T02:33:51.355Z,71.30
2022-09-03T02:36:22.415Z,72.90
2022-09-03T02:38:50.534Z,72.60
2022-09-03T02:41:18.528Z,72.50
2022-09-03T02:43:50.586Z,73.80
2022-09-03T02:46:23.495Z,73.50
2022-09-03T02:48:51.583Z,70.30
2022-09-03T02:51:19.661Z,71.10
2022-09-03T02:53:48.046Z,71.70
2022-09-03T02:56:16.002Z,72.80
2022-09-03T02:58:44.007Z,73.10
2022-09-03T03:01:16.269Z,73.50
2022-09-03T03:03:53.694Z,74.40
2022-09-03T03:06:21.894Z,74.50
2022-09-03T03:08:50.837Z,75.10
2022-09-03T03:11:19.957Z,75.20
2022-09-03T03:13:48.384Z,73.00
2022-09-03T03:16:17.863Z,74.20
2022-09-03T03:18:46.971Z,91.60
2022-09-03T03:21:18.315Z,76.70
2022-09-03T03:23:46.506Z,77.40
2022-09-03T03:26:17.753Z,77.10
2022-09-03T03:28:46.799Z,77.80
2022-09-03T03:31:16.902Z,78.30
2022-09-03T03:33:45.641Z,79.60
2022-09-03T03:36:16.583Z,78.20
2022-09-03T03:38:45.739Z,78.80
2022-09-03T03:41:17.012Z,79.90
2022-09-03T03:43:45.644Z,79.80
2022-09-03T03:46:15.059Z,79.40
2022-09-03T03:48:43.126Z,78.00
2022-09-03T03:51:11.887Z,78.10
2022-09-03T03:53:41.511Z,77.50
2022-09-03T03:56:11.363Z,77.20
2022-09-03T03:58:42.387Z,76.70
2022-09-03T04:01:12.491Z,76.80
2022-09-03T04:03:40.559Z,78.40
2022-09-03T04:06:09.276Z,78.00
2022-09-03T04:08:39.091Z,75.50
2022-09-03T04:11:10.741Z,76.60
2022-09-03T04:13:40.279Z,78.00
2022-09-03T04:16:10.472Z,79.50
2022-09-03T04:18:39.383Z,79.30
2022-09-03T04:21:09.361Z,81.00
2022-09-03T04:23:39.384Z,78.60
2022-09-03T04:26:09.988Z,78.60
2022-09-03T04:28:38.099Z,78.80
2022-09-03T04:31:08.015Z,78.90
2022-09-03T04:33:38.065Z,76.80
2022-09-03T04:36:08.225Z,76.20
2022-09-03T04:38:37.367Z,74.70
2022-09-03T04:41:06.532Z,75.70
2022-09-03T04:43:37.603Z,76.70
2022-09-03T04:46:10.832Z,77.60
2022-09-03T04:48:48.645Z,78.10
2022-09-03T04:51:18.336Z,80.10
2022-09-03T04:53:47.674Z,79.90
2022-09-03T04:56:16.890Z,79.60
2022-09-03T04:58:46.594Z,78.20
2022-09-03T05:01:20.884Z,78.80
2022-09-03T05:03:51.659Z,78.10
2022-09-03T05:06:20.358Z,78.50
2022-09-03T05:08:50.298Z,77.50
2022-09-03T05:11:19.001Z,78.30
2022-09-03T05:13:50.803Z,77.30
2022-09-03T05:16:19.719Z,78.30
2022-09-03T05:18:48.335Z,77.80
2022-09-03T05:21:18.396Z,77.80
2022-09-03T05:23:48.300Z,77.00
2022-09-03T05:26:18.195Z,76.70
2022-09-03T05:28:47.128Z,76.60
2022-09-03T05:31:18.336Z,77.50
2022-09-03T05:33:48.312Z,77.10
2022-09-03T05:36:18.214Z,76.40
2022-09-03T05:38:47.470Z,76.80
2022-09-03T05:41:17.033Z,76.90
2022-09-03T05:43:51.864Z,75.50
2022-09-03T05:46:21.232Z,73.70
2022-09-03T05:48:49.172Z,72.80
2022-09-03T05:51:19.132Z,73.80
2022-09-03T05:53:49.094Z,72.80
2022-09-03T05:56:19.112Z,72.50
2022-09-03T05:58:48.730Z,71.40
2022-09-03T06:01:23.630Z,72.30
2022-09-03T06:03:56.037Z,72.40
2022-09-03T06:06:25.927Z,72.00
2022-09-03T06:08:55.085Z,72.00
2022-09-03T06:11:28.119Z,70.80
2022-09-03T06:13:56.580Z,71.50
2022-09-03T06:16:31.501Z,72.10
2022-09-03T06:19:00.770Z,72.60
2022-09-03T06:21:29.229Z,71.70
2022-09-03T06:23:59.958Z,72.70
2022-09-03T06:26:29.746Z,72.50
2022-09-03T06:28:58.364Z,71.70
2022-09-03T06:31:28.143Z,72.30
2022-09-03T06:34:00.758Z,71.30
2022-09-03T06:36:31.711Z,70.60
2022-09-03T06:38:59.767Z,68.80
2022-09-03T06:41:30.774Z,70.50
2022-09-03T06:44:03.744Z,70.00
2022-09-03T06:46:34.825Z,71.00
2022-09-03T06:49:03.276Z,70.30
2022-09-03T06:51:32.986Z,71.10
2022-09-03T06:54:02.722Z,69.80
2022-09-03T06:56:37.372Z,68.10
2022-09-03T06:59:09.473Z,67.20
2022-09-03T07:01:43.578Z,68.40
2022-09-03T07:04:13.914Z,68.60
2022-09-03T07:06:43.229Z,68.10
2022-09-03T07:09:12.655Z,67.30
2022-09-03T07:11:47.108Z,67.20
2022-09-03T07:14:16.533Z,65.60
2022-09-03T07:16:46.433Z,66.70
2022-09-03T07:19:14.857Z,64.40
2022-09-03T07:21:48.366Z,66.70
2022-09-03T07:24:18.506Z,66.30
2022-09-03T07:26:48.529Z,65.80
2022-09-03T07:29:19.991Z,65.20
2022-09-03T07:31:52.571Z,65.30
2022-09-03T07:34:24.092Z,66.30
2022-09-03T07:36:52.447Z,65.00
2022-09-03T07:39:20.917Z,63.30
2022-09-03T07:41:50.591Z,66.30
2022-09-03T07:44:20.378Z,63.50
2022-09-03T07:46:51.777Z,63.10
2022-09-03T07:49:21.075Z,61.80
2022-09-03T07:51:50.813Z,62.60
2022-09-03T07:54:20.267Z,60.50
2022-09-03T07:56:48.428Z,59.00
2022-09-03T07:59:16.417Z,60.10
2022-09-03T08:01:44.547Z,59.50
2022-09-03T08:04:14.124Z,59.40
2022-09-03T08:06:42.326Z,58.40
2022-09-03T08:09:13.569Z,56.80
2022-09-03T08:11:44.239Z,57.60
2022-09-03T08:14:14.040Z,57.90
2022-09-03T08:16:44.281Z,65.60
2022-09-03T08:19:14.866Z,69.00
2022-09-03T08:21:43.231Z,69.50
2022-09-03T08:26:41.892Z,68.50
2022-09-03T08:29:10.735Z,68.40
2022-09-03T08:56:56.847Z,50.50
2022-09-03T08:59:28.241Z,47.80
2022-09-03T09:02:14.499Z,47.30
2022-09-03T09:04:55.566Z,51.50
2022-09-03T13:21:09.977Z,99.90
2022-09-03T13:23:55.672Z,99.90
2022-09-03T13:26:36.199Z,97.60
2022-09-03T13:29:26.110Z,99.90
2022-09-03T13:36:58.255Z,99.90
2022-09-03T13:39:31.722Z,95.50
2022-09-03T13:42:07.523Z,89.50
2022-09-03T13:44:45.841Z,90.00
2022-09-03T13:47:25.364Z,93.40
2022-09-03T13:50:15.611Z,82.60
2022-09-03T13:52:49.580Z,88.50
2022-09-03T13:55:23.583Z,85.00
2022-09-03T13:58:01.517Z,86.50
2022-09-03T14:08:23.997Z,75.00
2022-09-03T23:05:34.744Z,99.90
2022-09-03T23:08:09.482Z,99.90
2022-09-03T23:13:17.639Z,99.90
2022-09-03T23:26:13.259Z,99.90
2022-09-03T23:28:46.462Z,99.90
2022-09-03T23:31:21.560Z,99.90
2022-09-03T23:33:52.462Z,99.90
